Time;durP1;ratioP1;P1;durP2;ratioP2;P2;SDS_P1;SDS_P2;PMS_P1;PMS_P2;Temp;Humidity;BMP_temperature;BMP_pressure;BME280_temperature;BME280_humidity;BME280_pressure;Samples;Min_cycle;Max_cycle;Signal;HPM_P1;HPM_P2
2023/04/07 00:08:16;;;;;;;870.47;797.53;;;;;;;20.95;42.59;100092.16;20653860;28;20049;-74
2023/04/07 00:18:20;;;;;;;920.45;844.58;;;;;;;20.93;42.60;100080.94;20648846;28;20046;-75
2023/04/07 00:28:20;;;;;;;885.65;811.85;;;;;;;20.91;42.55;100078.44;20653936;28;20050;-76
2023/04/07 00:38:21;;;;;;;904.85;829.75;;;;;;;20.90;42.44;100078.56;20640979;28;20060;-75
2023/04/07 00:48:22;;;;;;;908.67;833.45;;;;;;;20.88;42.40;100064.69;20659749;28;20048;-76
2023/04/07 00:58:22;;;;;;;954.70;876.95;;;;;;;20.85;42.66;100065.75;20678866;28;20058;-76
2023/04/07 01:08:46;;;;;;;960.65;882.50;;;;;;;20.84;42.59;100065.91;20671378;28;20597;-75
2023/04/07 01:18:50;;;;;;;964.85;886.38;;;;;;;20.83;42.32;100051.06;20675206;28;20049;-76
2023/04/07 01:29:32;;;;;;;1010.83;929.97;;;;;;;20.79;42.57;100039.94;20675708;28;20043;-76
2023/04/07 01:39:33;;;;;;;1030.78;948.67;;;;;;;20.78;42.43;100038.28;20687362;28;20042;-76
2023/04/07 01:49:35;;;;;;;1036.93;954.55;;;;;;;20.77;42.42;100039.22;20673583;28;20046;-75
2023/04/07 01:59:36;;;;;;;1061.83;978.00;;;;;;;20.76;42.65;100034.94;20672648;28;20054;-76
2023/04/07 02:09:39;;;;;;;1075.65;991.03;;;;;;;20.74;42.29;100026.34;20679404;28;20520;-76
2023/04/07 02:19:42;;;;;;;1097.85;999.90;;;;;;;20.73;42.30;100037.81;20671899;28;20039;-76
2023/04/07 02:29:42;;;;;;;1119.13;999.90;;;;;;;20.69;42.68;100029.31;20675433;28;20116;-74
2023/04/07 02:39:42;;;;;;;1114.30;999.90;;;;;;;20.68;42.45;100024.16;20658483;28;20034;-76
2023/04/07 02:49:43;;;;;;;1139.72;999.90;;;;;;;20.67;42.69;100036.47;20677174;28;20184;-76
2023/04/07 02:59:43;;;;;;;1142.80;999.90;;;;;;;20.66;42.38;100026.09;20671563;28;20061;-75
2023/04/07 03:09:44;;;;;;;1136.82;999.90;;;;;;;20.65;42.37;100030.50;20662632;28;20030;-76
2023/04/07 03:19:45;;;;;;;1146.15;999.90;;;;;;;20.66;42.80;100018.19;20649689;28;20137;-79
2023/04/07 03:29:46;;;;;;;1143.13;999.90;;;;;;;20.65;43.11;100027.88;20667371;28;20061;-78
2023/04/07 03:39:46;;;;;;;1148.25;999.90;;;;;;;20.64;43.37;100029.66;20662108;28;20046;-78
2023/04/07 03:49:47;;;;;;;1147.13;999.90;;;;;;;20.64;43.15;100021.78;20669610;28;20054;-78
2023/04/07 03:59:49;;;;;;;1139.57;999.90;;;;;;;20.64;43.46;100039.34;20648570;28;20038;-76
2023/04/07 04:09:50;;;;;;;1146.53;999.90;;;;;;;20.64;43.48;100050.72;20644392;28;20497;-80
2023/04/07 04:19:53;;;;;;;1149.43;999.90;;;;;;;20.71;42.96;100050.22;20662181;28;20042;-79
2023/04/07 04:29:53;;;;;;;1149.05;999.90;;;;;;;20.77;43.32;100045.31;20665633;28;20045;-78
2023/04/07 04:39:54;;;;;;;1152.50;999.90;;;;;;;20.85;43.28;100055.25;20667157;28;20038;-76
2023/04/07 04:49:55;;;;;;;1149.95;999.90;;;;;;;20.90;42.77;100060.13;20664141;28;20046;-78
2023/04/07 04:59:55;;;;;;;1152.50;999.90;;;;;;;20.95;42.93;100077.19;20664889;28;20908;-78
2023/04/07 05:09:55;;;;;;;1152.85;999.90;;;;;;;21.01;42.93;100080.31;20663070;28;20543;-76
2023/04/07 05:19:56;;;;;;;1154.43;999.90;;;;;;;21.05;42.60;100081.72;20678816;28;20156;-78
2023/04/07 05:29:58;;;;;;;1156.10;999.90;;;;;;;21.13;43.04;100078.47;20668866;28;20056;-79
2023/04/07 05:40:05;;;;;;;1150.60;999.90;;;;;;;21.18;42.63;100094.69;20660622;28;20070;-76
2023/04/07 05:50:05;;;;;;;1136.32;999.90;;;;;;;21.23;42.79;100101.28;20661597;28;20042;-76
2023/04/07 06:00:07;;;;;;;1122.05;999.90;;;;;;;21.30;42.78;100095.50;20668782;28;20052;-78
2023/04/07 06:10:07;;;;;;;1129.68;999.90;;;;;;;21.34;42.74;100097.75;20661814;28;20401;-77
2023/04/07 06:20:09;;;;;;;1083.57;997.90;;;;;;;21.39;42.72;100097.38;20662498;28;20068;-77
2023/04/07 06:30:10;;;;;;;1106.78;999.90;;;;;;;21.44;42.82;100095.19;20654359;28;20130;-74
2023/04/07 06:40:10;;;;;;;1066.78;981.95;;;;;;;21.50;42.80;100112.31;20648892;28;20490;-77
2023/04/07 06:50:11;;;;;;;1048.95;964.78;;;;;;;21.55;43.32;100128.56;20637330;28;20095;-77
2023/04/07 07:00:12;;;;;;;1031.47;948.25;;;;;;;21.57;43.17;100126.66;20652996;28;20053;-75
2023/04/07 07:10:12;;;;;;;1049.20;964.85;;;;;;;21.63;43.26;100144.59;20650438;28;20053;-77
2023/04/07 07:20:14;;;;;;;1026.15;943.30;;;;;;;21.67;43.55;100158.34;20645540;28;20096;-76
2023/04/07 07:30:14;;;;;;;1028.32;945.15;;;;;;;21.70;43.76;100172.13;20640660;28;20128;-78
2023/04/07 07:40:15;;;;;;;986.15;905.20;;;;;;;21.74;44.12;100172.69;20644380;28;20046;-76
2023/04/07 07:50:15;;;;;;;945.30;866.25;;;;;;;21.76;44.11;100183.94;20654694;28;20513;-77
2023/04/07 08:00:16;;;;;;;944.92;866.20;;;;;;;21.79;44.08;100190.75;20651730;28;20044;-75
2023/04/07 08:10:19;;;;;;;953.45;874.50;;;;;;;21.80;43.93;100210.88;20648920;28;20061;-75
2023/04/07 08:20:20;;;;;;;930.80;853.03;;;;;;;21.80;44.42;100209.09;20654456;28;20042;-75
2023/04/07 08:30:21;;;;;;;932.60;855.00;;;;;;;21.79;44.59;100207.41;20648686;28;20785;-77
2023/04/07 08:40:21;;;;;;;930.00;852.30;;;;;;;21.17;34.12;100219.44;20645890;28;20042;-74
2023/04/07 08:50:25;;;;;;;1168.70;999.90;;;;;;;21.50;39.95;100228.22;20664911;28;20049;-76
2023/04/07 09:00:27;;;;;;;1127.10;999.90;;;;;;;21.59;42.16;100225.69;20669142;28;20034;-75
2023/04/07 09:10:27;;;;;;;1149.22;999.90;;;;;;;21.63;42.63;100226.28;20659541;28;20065;-76
2023/04/07 09:20:57;;;;;;;1133.10;999.90;;;;;;;21.67;43.10;100227.69;20666913;28;20045;-78
2023/04/07 09:30:58;;;;;;;1131.82;999.90;;;;;;;21.69;43.88;100224.91;20667159;28;20519;-76
2023/04/07 09:41:15;;;;;;;1144.70;999.90;;;;;;;21.70;44.46;100230.09;20647443;28;20042;-76
2023/04/07 09:51:16;;;;;;;1130.53;999.90;;;;;;;21.71;44.79;100229.09;20658748;28;20046;-76
2023/04/07 10:01:17;;;;;;;1154.93;999.90;;;;;;;21.71;44.58;100223.00;20657452;28;20026;-76
2023/04/07 10:11:18;;;;;;;1159.47;999.90;;;;;;;21.72;44.57;100227.31;20664508;28;20061;-77
2023/04/07 10:21:19;;;;;;;1158.18;999.90;;;;;;;21.72;44.54;100232.59;20665799;28;20041;-77
2023/04/07 10:31:20;;;;;;;1172.90;999.90;;;;;;;21.72;44.68;100230.78;20666317;28;20087;-78
2023/04/07 10:41:34;;;;;;;1177.38;999.90;;;;;;;21.75;44.86;100230.53;20658615;28;20049;-76
2023/04/07 10:51:35;;;;;;;1179.20;999.90;;;;;;;21.78;45.01;100232.09;20658316;28;20488;-76
2023/04/07 11:01:35;;;;;;;1181.78;999.90;;;;;;;21.83;46.28;100237.81;20654998;28;20061;-76
2023/04/07 11:11:38;;;;;;;1181.50;999.90;;;;;;;21.71;37.57;100239.66;20646532;28;20054;-76
2023/04/07 11:21:39;;;;;;;1181.03;999.90;;;;;;;21.85;47.87;100248.22;20652470;28;20048;-76
2023/04/07 11:31:40;;;;;;;1184.15;999.90;;;;;;;21.91;48.21;100242.47;20660276;28;20125;-76
2023/04/07 11:41:50;;;;;;;1187.72;999.90;;;;;;;21.94;48.37;100230.81;20652720;28;20054;-81
2023/04/07 11:52:02;;;;;;;1187.80;999.90;;;;;;;22.01;48.48;100232.81;20644454;28;20040;-77
2023/04/07 12:02:03;;;;;;;1191.13;999.90;;;;;;;22.03;48.48;100244.06;20663521;28;20418;-77
2023/04/07 12:12:06;;;;;;;1182.10;999.90;;;;;;;22.05;48.35;100243.94;20647169;28;20046;-77
2023/04/07 12:22:06;;;;;;;1180.00;999.90;;;;;;;22.05;47.79;100230.75;20654522;28;20045;-74
2023/04/07 12:32:07;;;;;;;1179.20;999.90;;;;;;;22.07;47.80;100224.38;20656367;28;20394;-75
2023/04/07 12:42:13;;;;;;;1175.93;999.90;;;;;;;22.05;47.48;100228.94;20664120;28;20046;-72
2023/04/07 12:52:14;;;;;;;1176.75;999.90;;;;;;;22.04;47.58;100229.91;20670401;28;20043;-75
2023/04/07 13:02:16;;;;;;;1179.18;999.90;;;;;;;22.05;46.80;100244.75;20669341;28;20050;-75
2023/04/07 13:12:17;;;;;;;;;;;;;;;22.07;48.06;100242.03;20669891;28;20045;-75
2023/04/07 13:22:17;;;;;;;1176.55;999.90;;;;;;;22.06;48.07;100237.72;20674096;28;20285;-75
2023/04/07 13:32:22;;;;;;;1177.43;999.90;;;;;;;22.06;48.36;100235.91;20686835;28;20033;-76
2023/04/07 13:42:22;;;;;;;1177.05;999.90;;;;;;;22.08;48.26;100246.31;20669448;28;20046;-74
2023/04/07 13:52:23;;;;;;;1175.13;999.90;;;;;;;22.09;48.39;100249.78;20670362;28;20110;-76
2023/04/07 14:02:26;;;;;;;1176.97;999.90;;;;;;;22.07;48.63;100247.28;20672901;28;20053;-73
2023/04/07 14:12:27;;;;;;;1177.72;999.90;;;;;;;22.09;48.55;100247.16;20665814;28;20229;-76
2023/04/07 14:22:27;;;;;;;1177.70;999.90;;;;;;;22.07;48.29;100250.75;20664482;28;20069;-76
2023/04/07 14:32:32;;;;;;;1178.70;999.90;;;;;;;22.05;48.61;100250.03;20660360;28;20050;-75
2023/04/07 14:42:33;;;;;;;1177.75;999.90;;;;;;;22.04;48.36;100261.53;20657230;28;20103;-75
2023/04/07 14:52:33;;;;;;;1175.55;999.90;;;;;;;22.01;48.40;100248.63;20664289;28;20039;-74
2023/04/07 15:02:35;;;;;;;1172.65;999.90;;;;;;;21.99;48.44;100261.09;20655764;28;20490;-74
2023/04/07 15:12:35;;;;;;;1173.90;999.90;;;;;;;21.92;44.14;100270.47;20660163;28;20056;-76
2023/04/07 15:22:35;;;;;;;1174.35;999.90;;;;;;;21.87;46.75;100264.75;20643660;28;20054;-75
2023/04/07 15:32:36;;;;;;;1173.15;999.90;;;;;;;21.85;47.23;100264.03;20654559;28;20164;-73
2023/04/07 15:42:38;;;;;;;1173.78;999.90;;;;;;;21.83;46.97;100261.53;20649338;28;20038;-75
2023/04/07 15:53:08;;;;;;;1172.30;999.90;;;;;;;21.83;47.11;100268.63;20652462;28;20050;-74
2023/04/07 16:03:08;;;;;;;1169.80;999.90;;;;;;;21.82;47.01;100280.13;20641708;28;20045;-75
2023/04/07 16:13:09;;;;;;;1170.60;999.90;;;;;;;21.80;47.16;100276.75;20642471;28;20049;-76
2023/04/07 16:23:11;;;;;;;1164.78;999.90;;;;;;;21.62;43.76;100289.63;20641160;28;20042;-79
2023/04/07 16:33:11;;;;;;;1169.60;999.90;;;;;;;21.64;45.14;100299.09;20652677;28;20049;-76
2023/04/07 16:43:12;;;;;;;1168.10;999.90;;;;;;;21.59;45.47;100301.25;20660107;28;20125;-76
2023/04/07 16:53:12;;;;;;;1165.45;999.90;;;;;;;21.61;46.45;100311.69;20658386;28;20046;-75
2023/04/07 17:03:13;;;;;;;1168.60;999.90;;;;;;;21.60;46.90;100313.47;20661829;28;20053;-76
2023/04/07 17:13:14;;;;;;;1174.75;999.90;;;;;;;21.67;47.08;100322.56;20645254;28;20089;-77
2023/04/07 17:23:15;;;;;;;1175.20;999.90;;;;;;;21.70;48.38;100335.50;20649563;28;20060;-75
2023/04/07 17:33:15;;;;;;;1181.20;999.90;;;;;;;21.77;48.48;100333.19;20653727;28;20053;-76
2023/04/07 17:43:15;;;;;;;1181.10;999.90;;;;;;;21.78;48.18;100347.22;20659239;28;20050;-77
2023/04/07 17:53:16;;;;;;;1181.75;999.90;;;;;;;21.80;48.32;100367.22;20659674;28;20054;-75
2023/04/07 18:03:18;;;;;;;1184.70;999.90;;;;;;;21.82;47.93;100380.28;20645168;28;20042;-74
2023/04/07 18:13:18;;;;;;;1181.13;999.90;;;;;;;21.86;47.82;100397.50;20640443;28;20053;-75
2023/04/07 18:23:18;;;;;;;1181.53;999.90;;;;;;;21.83;48.08;100416.22;20655738;28;20038;-75
2023/04/07 18:33:19;;;;;;;1188.47;999.90;;;;;;;21.84;47.50;100418.72;20664915;28;20042;-75
2023/04/07 18:43:19;;;;;;;1185.70;999.90;;;;;;;21.84;47.50;100431.91;20652292;28;20509;-75
2023/04/07 18:53:22;;;;;;;1186.63;999.90;;;;;;;21.89;47.46;100431.53;20638654;28;20043;-76
2023/04/07 19:03:23;;;;;;;1182.03;999.90;;;;;;;21.81;46.32;100431.31;20651256;28;20660;-76
2023/04/07 19:13:24;;;;;;;1179.80;999.90;;;;;;;21.74;46.63;100431.78;20645931;28;20164;-77
2023/04/07 19:23:25;;;;;;;1172.47;999.90;;;;;;;21.71;46.81;100447.00;20654878;28;21071;-77
2023/04/07 19:33:25;;;;;;;1175.85;999.90;;;;;;;21.66;46.70;100451.81;20659562;28;20298;-77
2023/04/07 19:43:26;;;;;;;1172.97;999.90;;;;;;;21.63;46.59;100450.25;20659364;28;20037;-77
2023/04/07 19:53:27;;;;;;;1171.60;999.90;;;;;;;21.60;46.44;100466.31;20653729;28;20514;-77
2023/04/07 20:03:28;;;;;;;1167.20;999.90;;;;;;;21.56;46.65;100462.22;20665586;28;20128;-78
2023/04/07 20:13:30;;;;;;;1169.05;999.90;;;;;;;21.52;46.29;100463.38;20668263;28;20096;-78
2023/04/07 20:23:32;;;;;;;1164.97;999.90;;;;;;;21.50;46.51;100470.59;20649451;28;20061;-80
2023/04/07 20:33:33;;;;;;;1163.20;999.90;;;;;;;21.45;46.36;100473.56;20652037;28;20508;-81
2023/04/07 20:43:33;;;;;;;1168.20;999.90;;;;;;;21.42;46.36;100471.16;20659075;28;20053;-76
2023/04/07 20:53:35;;;;;;;1168.45;999.90;;;;;;;21.38;46.34;100465.28;20650738;28;20046;-80
2023/04/07 21:03:35;;;;;;;1172.95;999.90;;;;;;;21.35;46.48;100475.22;20651991;28;20121;-78
2023/04/07 21:13:37;;;;;;;1160.53;999.90;;;;;;;21.33;46.42;100477.16;20674578;28;20152;-79
2023/04/07 21:23:37;;;;;;;1168.00;999.90;;;;;;;21.29;46.22;100484.44;20668120;28;20353;-77
2023/04/07 21:33:38;;;;;;;1163.15;999.90;;;;;;;21.26;46.38;100482.91;20678356;28;20055;-76
2023/04/07 21:43:38;;;;;;;1166.22;999.90;;;;;;;21.25;46.31;100480.34;20674753;28;20042;-75
2023/04/07 21:53:39;;;;;;;1164.20;999.90;;;;;;;21.22;46.22;100483.25;20672736;28;20042;-77
2023/04/07 22:03:40;;;;;;;1162.72;999.90;;;;;;;21.21;46.43;100490.28;20675034;28;20042;-78
2023/04/07 22:13:41;;;;;;;1160.75;999.90;;;;;;;21.16;46.28;100500.34;20666845;28;20055;-74
2023/04/07 22:23:41;;;;;;;1146.75;999.90;;;;;;;21.14;46.21;100498.78;20668768;28;20050;-78
2023/04/07 22:33:42;;;;;;;1141.20;999.90;;;;;;;21.13;45.96;100497.94;20666465;28;20166;-77
2023/04/07 22:43:42;;;;;;;1144.15;999.90;;;;;;;21.12;46.21;100501.53;20669521;28;20077;-75
2023/04/07 22:53:43;;;;;;;1129.57;999.90;;;;;;;21.09;46.27;100512.28;20668095;28;20344;-74
2023/04/07 23:03:43;;;;;;;1122.65;999.90;;;;;;;21.04;46.30;100517.06;20660854;28;20042;-78
2023/04/07 23:13:43;;;;;;;1142.80;999.90;;;;;;;21.03;46.11;100508.34;20664061;28;20046;-79
2023/04/07 23:23:45;;;;;;;1135.93;999.90;;;;;;;21.02;45.99;100511.06;20659962;28;20133;-74
2023/04/07 23:33:46;;;;;;;1157.45;999.90;;;;;;;21.00;45.98;100508.53;20665771;28;20133;-76
2023/04/07 23:43:46;;;;;;;1161.22;999.90;;;;;;;21.00;46.06;100510.34;20678068;28;20065;-74
2023/04/07 23:53:47;;;;;;;1159.57;999.90;;;;;;;20.95;46.24;100515.97;20658934;28;20478;-79
